Time;durP1;ratioP1;P1;durP2;ratioP2;P2;SDS_P1;SDS_P2;PMS_P1;PMS_P2;Temp;Humidity;BMP_temperature;BMP_pressure;BME280_temperature;BME280_humidity;BME280_pressure;Samples;Min_cycle;Max_cycle;Signal;HPM_P1;HPM_P2
2021/03/04 00:04:59;;;;;;;10.70;4.93;;;;;;;;;;10487907;28;20665;-72
2021/03/04 00:10:03;;;;;;;11.03;5.00;;;;;;;;;;10475055;28;20256;-74
2021/03/04 00:15:07;;;;;;;10.73;4.60;;;;;;;;;;10462132;28;20200;-72
2021/03/04 00:20:18;;;;;;;9.83;4.43;;;;;;;;;;10470739;28;20239;-74
2021/03/04 00:25:20;;;;;;;9.53;4.60;;;;;;;;;;10494618;28;20205;-76
2021/03/04 00:30:25;;;;;;;10.73;4.60;;;;;;;;;;10484709;28;20382;-76
2021/03/04 00:35:27;;;;;;;8.80;4.50;;;;;;;;;;10476395;28;20600;-74
2021/03/04 00:40:28;;;;;;;11.13;5.00;;;;;;;;;;10487786;28;20256;-78
2021/03/04 00:45:31;;;;;;;9.37;4.67;;;;;;;;;;10482805;28;20269;-74
2021/03/04 00:50:41;;;;;;;10.60;4.43;;;;;;;;;;10494677;28;20230;-76
2021/03/04 00:55:43;;;;;;;9.23;4.00;;;;;;;;;;10465490;28;20270;-74
2021/03/04 01:00:46;;;;;;;10.03;4.60;;;;;;;;;;10480112;28;20466;-74
2021/03/04 01:05:48;;;;;;;11.33;4.70;;;;;;;;;;10486555;28;20213;-76
2021/03/04 01:10:49;;;;;;;10.77;4.30;;;;;;;;;;10490766;28;20216;-74
2021/03/04 01:15:52;;;;;;;9.60;3.97;;;;;;;;;;10494912;28;20217;-75
2021/03/04 01:21:03;;;;;;;12.00;4.23;;;;;;;;;;10493915;28;20387;-73
2021/03/04 01:26:06;;;;;;;8.07;4.00;;;;;;;;;;10500703;28;20673;-71
2021/03/04 01:31:08;;;;;;;9.70;4.23;;;;;;;;;;10491853;28;20296;-74
2021/03/04 01:36:10;;;;;;;9.60;4.50;;;;;;;;;;10497242;28;20253;-79
2021/03/04 01:41:12;;;;;;;8.77;3.63;;;;;;;;;;10469866;28;20236;-74
2021/03/04 01:46:15;;;;;;;9.60;3.40;;;;;;;;;;10494907;28;20703;-75
2021/03/04 01:51:24;;;;;;;9.13;3.73;;;;;;;;;;10489486;28;20294;-75
2021/03/04 01:56:26;;;;;;;9.07;3.90;;;;;;;;;;10488189;28;20661;-72
2021/03/04 02:01:30;;;;;;;12.07;4.13;;;;;;;;;;10501007;28;20223;-74
2021/03/04 02:06:34;;;;;;;9.63;3.90;;;;;;;;;;10485203;28;20283;-75
2021/03/04 02:11:38;;;;;;;8.10;3.90;;;;;;;;;;10483026;28;20212;-72
2021/03/04 02:16:42;;;;;;;8.17;3.60;;;;;;;;;;10480358;28;20211;-72
2021/03/04 02:21:55;;;;;;;8.10;3.33;;;;;;;;;;10478454;28;20191;-75
2021/03/04 02:27:03;;;;;;;7.80;3.50;;;;;;;;;;10463921;28;20220;-75
2021/03/04 02:32:06;;;;;;;9.07;3.67;;;;;;;;;;10470483;28;20227;-74
2021/03/04 02:37:09;;;;;;;7.37;3.47;;;;;;;;;;10465390;28;20227;-77
2021/03/04 02:42:14;;;;;;;7.17;3.53;;;;;;;;;;10486979;28;20192;-75
2021/03/04 02:47:17;;;;;;;7.80;3.47;;;;;;;;;;10496314;28;20230;-76
2021/03/04 02:52:20;;;;;;;8.27;3.50;;;;;;;;;;10491789;28;20192;-77
2021/03/04 02:57:24;;;;;;;7.80;3.00;;;;;;;;;;10497790;28;20207;-75
2021/03/04 03:02:27;;;;;;;7.60;3.40;;;;;;;;;;10502581;28;20215;-75
2021/03/04 03:07:29;;;;;;;8.00;3.17;;;;;;;;;;10488397;28;20231;-75
2021/03/04 03:12:31;;;;;;;9.17;3.43;;;;;;;;;;10491761;28;20200;-73
2021/03/04 03:17:33;;;;;;;7.77;3.57;;;;;;;;;;10497096;28;20212;-73
2021/03/04 03:22:35;;;;;;;6.93;3.00;;;;;;;;;;10501018;28;20279;-74
2021/03/04 03:27:39;;;;;;;8.30;3.50;;;;;;;;;;10488953;28;20240;-76
2021/03/04 03:32:42;;;;;;;9.40;3.63;;;;;;;;;;10485900;28;20238;-76
2021/03/04 03:37:45;;;;;;;7.60;3.40;;;;;;;;;;10476030;28;20226;-75
2021/03/04 03:42:47;;;;;;;7.80;3.50;;;;;;;;;;10493293;28;20191;-74
2021/03/04 03:47:49;;;;;;;7.47;3.40;;;;;;;;;;10478654;28;20224;-73
2021/03/04 03:52:57;;;;;;;8.20;3.50;;;;;;;;;;10467935;28;20219;-75
2021/03/04 03:57:59;;;;;;;10.13;3.87;;;;;;;;;;10486496;28;20254;-75
2021/03/04 04:03:03;;;;;;;8.57;3.57;;;;;;;;;;10467460;28;20192;-74
2021/03/04 04:08:05;;;;;;;8.73;3.47;;;;;;;;;;10487086;28;20212;-75
2021/03/04 04:13:08;;;;;;;7.80;3.60;;;;;;;;;;10470774;28;20737;-77
2021/03/04 04:18:10;;;;;;;9.03;3.70;;;;;;;;;;10485663;28;20238;-75
2021/03/04 04:23:21;;;;;;;9.50;4.00;;;;;;;;;;10464207;28;20205;-74
2021/03/04 04:28:24;;;;;;;9.47;3.60;;;;;;;;;;10471530;28;20216;-75
2021/03/04 04:33:26;;;;;;;10.20;4.00;;;;;;;;;;10482189;28;20288;-74
2021/03/04 04:38:28;;;;;;;8.43;3.97;;;;;;;;;;10456918;28;20295;-73
2021/03/04 04:43:30;;;;;;;9.40;3.53;;;;;;;;;;10486884;28;20193;-76
2021/03/04 04:48:32;;;;;;;10.87;4.13;;;;;;;;;;10480838;28;20782;-74
2021/03/04 04:53:45;;;;;;;9.93;3.97;;;;;;;;;;10449676;28;20471;-74
2021/03/04 04:58:48;;;;;;;9.93;3.40;;;;;;;;;;10503020;28;20207;-74
2021/03/04 05:03:49;;;;;;;10.10;3.40;;;;;;;;;;10482028;28;20571;-71
2021/03/04 05:08:51;;;;;;;9.83;3.70;;;;;;;;;;10487997;28;20236;-75
2021/03/04 05:13:53;;;;;;;10.50;3.73;;;;;;;;;;10470772;28;20196;-77
2021/03/04 05:18:55;;;;;;;9.10;3.73;;;;;;;;;;10478008;28;20577;-76
2021/03/04 05:24:06;;;;;;;9.87;3.40;;;;;;;;;;10497731;28;20520;-75
2021/03/04 05:29:09;;;;;;;10.00;3.73;;;;;;;;;;10460086;28;20228;-72
2021/03/04 05:34:10;;;;;;;10.97;3.83;;;;;;;;;;10487162;28;20197;-73
2021/03/04 05:39:12;;;;;;;9.47;3.80;;;;;;;;;;10486203;28;20216;-74
2021/03/04 05:44:14;;;;;;;10.23;4.20;;;;;;;;;;10483075;28;20208;-79
2021/03/04 05:49:18;;;;;;;9.33;3.60;;;;;;;;;;10500778;28;20729;-74
2021/03/04 05:54:32;;;;;;;9.80;4.10;;;;;;;;;;10492042;28;20304;-79
2021/03/04 05:59:35;;;;;;;12.40;4.20;;;;;;;;;;10488881;28;20213;-77
2021/03/04 06:04:37;;;;;;;8.57;3.57;;;;;;;;;;10498224;28;20212;-76
2021/03/04 06:09:39;;;;;;;8.27;3.60;;;;;;;;;;10479754;28;20279;-73
2021/03/04 06:14:41;;;;;;;9.50;3.53;;;;;;;;;;10469487;28;20199;-71
2021/03/04 06:19:51;;;;;;;10.60;3.93;;;;;;;;;;10454695;28;20248;-74
2021/03/04 06:24:53;;;;;;;10.10;3.83;;;;;;;;;;10500563;28;20252;-74
2021/03/04 06:29:56;;;;;;;10.33;4.00;;;;;;;;;;10488600;28;20285;-76
2021/03/04 06:35:05;;;;;;;9.00;4.03;;;;;;;;;;10504405;28;20653;-75
2021/03/04 06:40:08;;;;;;;9.53;3.80;;;;;;;;;;10455232;28;20228;-75
2021/03/04 06:45:22;;;;;;;5.87;2.43;;;;;;;;;;10459987;28;20261;-76
2021/03/04 06:50:25;;;;;;;9.63;3.80;;;;;;;;;;10486332;28;20242;-74
2021/03/04 06:55:26;;;;;;;9.13;3.77;;;;;;;;;;10452987;28;20280;-75
2021/03/04 07:00:30;;;;;;;12.67;3.87;;;;;;;;;;10465901;28;20564;-73
2021/03/04 07:05:32;;;;;;;8.27;3.27;;;;;;;;;;10470604;28;20462;-75
2021/03/04 07:10:33;;;;;;;9.40;3.60;;;;;;;;;;10480836;28;20247;-79
2021/03/04 07:15:36;;;;;;;9.13;3.43;;;;;;;;;;10484358;28;20189;-75
2021/03/04 07:20:38;;;;;;;9.95;4.20;;;;;;;;;;10465267;28;20436;-75
2021/03/04 07:25:44;;;;;;;8.87;3.40;;;;;;;;;;10497251;28;20619;-74
2021/03/04 07:30:48;;;;;;;8.00;3.37;;;;;;;;;;10498833;28;20217;-76
2021/03/04 07:35:50;;;;;;;9.97;3.33;;;;;;;;;;10476557;28;20193;-74
2021/03/04 07:41:05;;;;;;;8.13;3.27;;;;;;;;;;10469605;28;20239;-75
2021/03/04 07:46:26;;;;;;;10.33;4.00;;;;;;;;;;10542260;27;20827;-74
2021/03/04 07:51:28;;;;;;;8.97;3.70;;;;;;;;;;10530479;28;20215;-75
2021/03/04 07:56:29;;;;;;;11.53;3.63;;;;;;;;;;10524382;28;20261;-75
2021/03/04 08:01:32;;;;;;;11.27;3.70;;;;;;;;;;10528603;28;20729;-77
2021/03/04 08:06:42;;;;;;;12.20;3.60;;;;;;;;;;10513197;28;20628;-76
2021/03/04 08:11:44;;;;;;;14.90;3.90;;;;;;;;;;10525638;28;20216;-76
2021/03/04 08:17:04;;;;;;;11.13;4.13;;;;;;;;;;10513517;28;20690;-74
2021/03/04 08:22:08;;;;;;;10.50;3.73;;;;;;;;;;10520625;28;20212;-78
2021/03/04 08:27:09;;;;;;;10.53;3.33;;;;;;;;;;10528475;28;20294;-77
2021/03/04 08:32:14;;;;;;;10.00;3.70;;;;;;;;;;10505727;28;20258;-75
2021/03/04 08:37:21;;;;;;;11.03;3.63;;;;;;;;;;10517824;28;20290;-75
2021/03/04 08:42:24;;;;;;;11.40;3.50;;;;;;;;;;10514098;28;20219;-75
2021/03/04 08:47:26;;;;;;;10.30;4.00;;;;;;;;;;10524208;28;20227;-75
2021/03/04 08:52:28;;;;;;;15.27;3.83;;;;;;;;;;10534010;28;20207;-77
2021/03/04 08:57:30;;;;;;;9.60;4.00;;;;;;;;;;10525185;28;20220;-80
2021/03/04 09:02:32;;;;;;;10.17;4.47;;;;;;;;;;10535020;28;20222;-80
2021/03/04 09:07:40;;;;;;;12.13;5.07;;;;;;;;;;10519939;28;20228;-76
2021/03/04 09:12:43;;;;;;;12.50;5.30;;;;;;;;;;10494636;28;20193;-75
2021/03/04 09:17:46;;;;;;;14.50;5.83;;;;;;;;;;10493469;28;20208;-78
2021/03/04 09:22:48;;;;;;;11.77;5.47;;;;;;;;;;10497572;28;20204;-74
2021/03/04 09:27:50;;;;;;;11.23;5.17;;;;;;;;;;10487562;28;20595;-74
2021/03/04 09:32:52;;;;;;;12.63;5.13;;;;;;;;;;10498817;28;20253;-74
2021/03/04 09:38:04;;;;;;;11.77;5.17;;;;;;;;;;10493075;28;20261;-73
2021/03/04 09:43:13;;;;;;;11.73;4.93;;;;;;;;;;10484865;28;20239;-76
2021/03/04 09:48:15;;;;;;;10.53;4.60;;;;;;;;;;10497774;28;20314;-75
2021/03/04 09:53:17;;;;;;;9.93;4.50;;;;;;;;;;10497321;28;20188;-75
2021/03/04 09:58:20;;;;;;;11.63;5.00;;;;;;;;;;10489785;28;20232;-76
2021/03/04 10:03:31;;;;;;;11.60;5.00;;;;;;;;;;10491497;28;20715;-75
2021/03/04 10:08:40;;;;;;;12.67;5.10;;;;;;;;;;10489635;28;20220;-77
2021/03/04 10:13:41;;;;;;;12.50;4.13;;;;;;;;;;10499380;28;20185;-75
2021/03/04 10:18:44;;;;;;;11.60;4.50;;;;;;;;;;10519457;28;20247;-79
2021/03/04 10:23:46;;;;;;;12.27;5.17;;;;;;;;;;10481627;28;20705;-73
2021/03/04 10:28:47;;;;;;;10.87;5.00;;;;;;;;;;10486845;28;20314;-76
2021/03/04 10:33:50;;;;;;;9.93;4.47;;;;;;;;;;10495423;28;20188;-73
2021/03/04 10:38:51;;;;;;;10.80;3.93;;;;;;;;;;10478178;28;20220;-75
2021/03/04 10:43:53;;;;;;;11.23;4.20;;;;;;;;;;10490797;28;20619;-76
2021/03/04 10:48:55;;;;;;;6.87;3.17;;;;;;;;;;10482718;28;20774;-75
2021/03/04 10:54:00;;;;;;;9.80;4.90;;;;;;;;;;10493695;28;20196;-77
2021/03/04 10:59:03;;;;;;;12.47;5.40;;;;;;;;;;10485969;28;20633;-76
2021/03/04 11:04:06;;;;;;;11.07;5.50;;;;;;;;;;10488658;28;20219;-75
2021/03/04 11:09:07;;;;;;;9.77;5.38;;;;;;;;;;10487516;28;20229;-76
2021/03/04 11:14:09;;;;;;;10.10;5.68;;;;;;;;;;10490845;28;20710;-73
2021/03/04 11:19:14;;;;;;;9.80;5.60;;;;;;;;;;10478254;28;20224;-75
2021/03/04 11:24:16;;;;;;;9.38;6.07;;;;;;;;;;10487181;28;20243;-77
2021/03/04 11:29:18;;;;;;;10.80;5.70;;;;;;;;;;10485724;28;20247;-78
2021/03/04 11:34:21;;;;;;;10.50;6.38;;;;;;;;;;10482496;28;20196;-77
2021/03/04 11:39:24;;;;;;;11.93;6.40;;;;;;;;;;10480980;28;20223;-73
2021/03/04 11:44:25;;;;;;;11.35;6.22;;;;;;;;;;10483467;28;20215;-75
2021/03/04 11:49:28;;;;;;;12.73;7.07;;;;;;;;;;10487870;28;20212;-74
2021/03/04 11:54:29;;;;;;;11.48;6.43;;;;;;;;;;10481794;28;20196;-76
2021/03/04 11:59:31;;;;;;;10.82;6.85;;;;;;;;;;10488561;28;20241;-74
2021/03/04 12:04:33;;;;;;;12.38;6.25;;;;;;;;;;10476686;28;20686;-72
2021/03/04 12:09:35;;;;;;;10.55;6.28;;;;;;;;;;10479805;28;20700;-72
2021/03/04 12:14:37;;;;;;;11.45;5.68;;;;;;;;;;10475283;28;20200;-71
2021/03/04 12:19:39;;;;;;;12.45;6.10;;;;;;;;;;10472438;28;20303;-76
2021/03/04 12:24:41;;;;;;;11.98;5.40;;;;;;;;;;10479539;28;20299;-74
2021/03/04 12:29:43;;;;;;;12.18;6.70;;;;;;;;;;10477595;28;20273;-74
2021/03/04 12:34:45;;;;;;;17.63;5.75;;;;;;;;;;10472483;28;20253;-77
2021/03/04 12:39:47;;;;;;;11.32;5.65;;;;;;;;;;10462868;28;20295;-72
2021/03/04 12:44:48;;;;;;;14.13;5.47;;;;;;;;;;10458552;28;20354;-78
2021/03/04 12:49:51;;;;;;;12.98;5.50;;;;;;;;;;10486535;28;20216;-72
2021/03/04 12:54:53;;;;;;;14.87;5.87;;;;;;;;;;10472427;28;20280;-74
2021/03/04 12:59:54;;;;;;;13.47;5.80;;;;;;;;;;10479500;28;20216;-78
2021/03/04 13:04:57;;;;;;;12.87;5.63;;;;;;;;;;10484761;28;20302;-77
2021/03/04 13:09:58;;;;;;;16.03;5.50;;;;;;;;;;10487031;28;20654;-78
2021/03/04 13:15:01;;;;;;;11.53;5.17;;;;;;;;;;10484367;28;20192;-73
2021/03/04 13:20:06;;;;;;;11.70;4.80;;;;;;;;;;10479793;28;20211;-80
2021/03/04 13:25:08;;;;;;;14.27;5.93;;;;;;;;;;10481723;28;20593;-76
2021/03/04 13:30:10;;;;;;;13.87;5.70;;;;;;;;;;10476799;28;20716;-74
2021/03/04 13:35:13;;;;;;;15.20;5.30;;;;;;;;;;10478119;28;20250;-75
2021/03/04 13:40:15;;;;;;;12.03;5.17;;;;;;;;;;10482219;28;20310;-75
2021/03/04 13:45:16;;;;;;;11.73;5.07;;;;;;;;;;10472891;28;20839;-76
2021/03/04 13:50:19;;;;;;;12.83;5.43;;;;;;;;;;10477194;28;20228;-75
2021/03/04 13:55:20;;;;;;;22.80;6.30;;;;;;;;;;10480789;28;20319;-74
2021/03/04 14:00:23;;;;;;;12.57;5.17;;;;;;;;;;10480419;28;20224;-75
2021/03/04 14:05:25;;;;;;;10.97;5.47;;;;;;;;;;10478211;28;20307;-76
2021/03/04 14:10:27;;;;;;;12.53;4.77;;;;;;;;;;10476124;28;20307;-75
2021/03/04 14:15:29;;;;;;;10.63;4.13;;;;;;;;;;10504694;28;20199;-78
2021/03/04 14:20:31;;;;;;;8.33;3.87;;;;;;;;;;10492725;28;20224;-76
2021/03/04 14:25:33;;;;;;;8.37;3.50;;;;;;;;;;10492114;28;20236;-74
2021/03/04 14:30:45;;;;;;;10.30;4.20;;;;;;;;;;10488464;28;20299;-73
2021/03/04 14:35:48;;;;;;;11.07;3.93;;;;;;;;;;10491267;28;20196;-75
2021/03/04 14:40:49;;;;;;;7.70;3.67;;;;;;;;;;10481862;28;20227;-73
2021/03/04 14:45:59;;;;;;;9.40;4.00;;;;;;;;;;10524604;28;20720;-78
2021/03/04 14:51:04;;;;;;;13.50;4.90;;;;;;;;;;10521941;28;20231;-78
2021/03/04 14:56:06;;;;;;;11.07;5.10;;;;;;;;;;10479488;28;20185;-77
2021/03/04 15:01:10;;;;;;;12.83;5.70;;;;;;;;;;10478749;28;20220;-74
2021/03/04 15:06:14;;;;;;;11.13;5.53;;;;;;;;;;10469845;28;20208;-75
2021/03/04 15:11:17;;;;;;;10.73;5.73;;;;;;;;;;10474208;28;20238;-75
2021/03/04 15:16:19;;;;;;;11.33;5.20;;;;;;;;;;10479789;28;20245;-74
2021/03/04 15:21:22;;;;;;;14.23;5.60;;;;;;;;;;10488098;28;20270;-78
2021/03/04 15:26:24;;;;;;;14.10;5.43;;;;;;;;;;10504234;28;20596;-75
2021/03/04 15:31:31;;;;;;;12.57;5.77;;;;;;;;;;10499554;28;20231;-75
2021/03/04 15:36:40;;;;;;;11.03;5.43;;;;;;;;;;10483383;28;20234;-74
2021/03/04 15:41:42;;;;;;;11.57;4.87;;;;;;;;;;10484380;28;20280;-74
2021/03/04 15:46:43;;;;;;;11.97;5.00;;;;;;;;;;10487890;28;20212;-76
2021/03/04 15:51:46;;;;;;;15.23;5.33;;;;;;;;;;10486795;28;20258;-78
2021/03/04 15:56:48;;;;;;;12.80;5.40;;;;;;;;;;10488370;28;20199;-77
2021/03/04 16:02:09;;;;;;;13.67;5.30;;;;;;;;;;10481878;28;20234;-77
2021/03/04 16:07:11;;;;;;;11.07;5.10;;;;;;;;;;10495797;28;20533;-76
2021/03/04 16:12:13;;;;;;;10.27;5.03;;;;;;;;;;10504123;28;20288;-75
2021/03/04 16:17:15;;;;;;;14.33;5.90;;;;;;;;;;10492417;28;20616;-72
2021/03/04 16:22:17;;;;;;;12.50;5.70;;;;;;;;;;10502641;28;20204;-75
2021/03/04 16:27:19;;;;;;;14.07;5.73;;;;;;;;;;10488054;28;20310;-73
2021/03/04 16:32:21;;;;;;;11.77;5.97;;;;;;;;;;10503744;28;20208;-74
2021/03/04 16:37:23;;;;;;;12.03;5.37;;;;;;;;;;10491702;28;20299;-79
2021/03/04 16:42:25;;;;;;;16.03;5.77;;;;;;;;;;10497926;28;20199;-75
2021/03/04 16:47:27;;;;;;;14.33;6.40;;;;;;;;;;10489335;28;20243;-73
2021/03/04 16:52:30;;;;;;;12.40;5.70;;;;;;;;;;10495921;28;20273;-74
2021/03/04 16:57:32;;;;;;;14.50;6.47;;;;;;;;;;10495698;28;20269;-75
2021/03/04 17:02:43;;;;;;;13.60;6.50;;;;;;;;;;10497436;28;20718;-73
2021/03/04 17:07:46;;;;;;;14.50;6.73;;;;;;;;;;10509427;28;20287;-74
2021/03/04 17:12:48;;;;;;;12.67;6.10;;;;;;;;;;10490386;28;20195;-74
2021/03/04 17:17:49;;;;;;;13.87;6.13;;;;;;;;;;10489038;28;20270;-74
2021/03/04 17:22:52;;;;;;;14.30;6.57;;;;;;;;;;10486300;28;20668;-74
2021/03/04 17:27:54;;;;;;;19.43;8.50;;;;;;;;;;10490253;28;20315;-74
2021/03/04 17:33:04;;;;;;;15.30;8.00;;;;;;;;;;10492882;28;20207;-74
2021/03/04 17:38:06;;;;;;;14.70;6.87;;;;;;;;;;10497792;28;20213;-75
2021/03/04 17:43:08;;;;;;;14.70;6.67;;;;;;;;;;10488833;28;20242;-75
2021/03/04 17:48:10;;;;;;;13.57;6.03;;;;;;;;;;10480315;28;20231;-76
2021/03/04 17:53:13;;;;;;;14.63;6.00;;;;;;;;;;10497285;28;20224;-75
2021/03/04 17:58:15;;;;;;;12.97;5.50;;;;;;;;;;10491086;28;20250;-74
2021/03/04 18:03:28;;;;;;;13.73;5.93;;;;;;;;;;10487649;28;20552;-73
2021/03/04 18:08:31;;;;;;;15.83;5.60;;;;;;;;;;10480210;28;20243;-74
2021/03/04 18:13:33;;;;;;;14.63;5.60;;;;;;;;;;10494468;28;20188;-73
2021/03/04 18:18:35;;;;;;;11.13;4.50;;;;;;;;;;10492601;28;20239;-75
2021/03/04 18:23:37;;;;;;;10.53;5.20;;;;;;;;;;10491202;28;20212;-75
2021/03/04 18:28:39;;;;;;;12.17;5.20;;;;;;;;;;10488712;28;20232;-75
2021/03/04 18:33:48;;;;;;;12.47;4.87;;;;;;;;;;10491764;28;20238;-74
2021/03/04 18:38:51;;;;;;;14.57;5.90;;;;;;;;;;10484511;28;20779;-71
2021/03/04 18:43:52;;;;;;;13.50;5.33;;;;;;;;;;10494045;28;20867;-75
2021/03/04 18:48:54;;;;;;;12.00;5.33;;;;;;;;;;10495639;28;20214;-74
2021/03/04 18:53:56;;;;;;;13.67;5.43;;;;;;;;;;10497842;28;20197;-76
2021/03/04 18:58:59;;;;;;;11.03;4.70;;;;;;;;;;10489090;28;20588;-75
2021/03/04 19:04:12;;;;;;;12.73;5.77;;;;;;;;;;10492893;28;20267;-73
2021/03/04 19:09:15;;;;;;;11.20;5.03;;;;;;;;;;10491737;28;20216;-74
2021/03/04 19:14:16;;;;;;;12.93;4.70;;;;;;;;;;10500617;28;20246;-75
2021/03/04 19:19:18;;;;;;;13.20;5.43;;;;;;;;;;10487989;28;20299;-76
2021/03/04 19:24:21;;;;;;;15.80;5.53;;;;;;;;;;10490704;28;20244;-74
2021/03/04 19:29:23;;;;;;;10.97;5.50;;;;;;;;;;10488307;28;20634;-76
2021/03/04 19:34:36;;;;;;;13.40;5.63;;;;;;;;;;10492190;28;20275;-75
2021/03/04 19:39:39;;;;;;;12.43;5.93;;;;;;;;;;10486814;28;20227;-75
2021/03/04 19:44:40;;;;;;;14.90;5.73;;;;;;;;;;10497257;28;20347;-77
2021/03/04 19:49:42;;;;;;;12.27;4.70;;;;;;;;;;10491173;28;20729;-75
2021/03/04 19:54:45;;;;;;;13.60;5.90;;;;;;;;;;10494299;28;20283;-74
2021/03/04 19:59:46;;;;;;;15.73;6.27;;;;;;;;;;10525404;28;20216;-73
2021/03/04 20:04:58;;;;;;;12.90;5.60;;;;;;;;;;10498453;28;20314;-74
2021/03/04 20:10:04;;;;;;;13.37;5.47;;;;;;;;;;10491317;28;20306;-76
2021/03/04 20:15:07;;;;;;;13.10;5.50;;;;;;;;;;10492040;28;20687;-81
2021/03/04 20:20:09;;;;;;;11.33;5.47;;;;;;;;;;10490560;28;20682;-76
2021/03/04 20:25:13;;;;;;;13.70;5.77;;;;;;;;;;10508514;28;20213;-73
2021/03/04 20:30:15;;;;;;;14.27;5.87;;;;;;;;;;10500677;28;20220;-74
2021/03/04 20:35:25;;;;;;;14.87;6.77;;;;;;;;;;10481854;28;20208;-75
2021/03/04 20:40:28;;;;;;;11.83;5.03;;;;;;;;;;10494451;28;20215;-75
2021/03/04 20:45:30;;;;;;;13.80;6.97;;;;;;;;;;10508035;28;20239;-75
2021/03/04 20:50:32;;;;;;;17.07;6.77;;;;;;;;;;10494174;28;20561;-75
2021/03/04 20:55:34;;;;;;;14.03;6.63;;;;;;;;;;10498671;28;20663;-76
2021/03/04 21:00:36;;;;;;;18.80;6.20;;;;;;;;;;10503815;28;20216;-75
2021/03/04 21:05:46;;;;;;;13.90;5.80;;;;;;;;;;10518186;28;20239;-78
2021/03/04 21:10:50;;;;;;;16.60;7.00;;;;;;;;;;10519044;28;20212;-74
2021/03/04 21:15:51;;;;;;;14.23;6.90;;;;;;;;;;10516036;28;20238;-74
2021/03/04 21:20:53;;;;;;;15.03;7.00;;;;;;;;;;10515016;28;20545;-75
2021/03/04 21:25:56;;;;;;;10.50;4.47;;;;;;;;;;10498899;28;20227;-75
2021/03/04 21:30:57;;;;;;;10.73;4.50;;;;;;;;;;10487060;28;20291;-74
2021/03/04 21:36:15;;;;;;;17.37;7.60;;;;;;;;;;10483180;28;20189;-74
2021/03/04 21:41:18;;;;;;;11.57;5.83;;;;;;;;;;10495655;28;20220;-75
2021/03/04 21:46:19;;;;;;;19.93;10.33;;;;;;;;;;10504563;28;20230;-75
2021/03/04 21:51:22;;;;;;;12.77;6.43;;;;;;;;;;10494338;28;20269;-74
2021/03/04 21:56:24;;;;;;;19.73;9.40;;;;;;;;;;10490890;28;20284;-75
2021/03/04 22:01:26;;;;;;;13.70;7.53;;;;;;;;;;10495805;28;20208;-72
2021/03/04 22:06:33;;;;;;;13.27;7.00;;;;;;;;;;10484722;28;20636;-74
2021/03/04 22:11:36;;;;;;;13.70;8.33;;;;;;;;;;10488338;28;20220;-74
2021/03/04 22:16:38;;;;;;;12.13;6.17;;;;;;;;;;10495423;28;20200;-75
2021/03/04 22:21:40;;;;;;;11.57;6.27;;;;;;;;;;10481449;28;20212;-77
2021/03/04 22:26:42;;;;;;;12.17;6.90;;;;;;;;;;10485307;28;20266;-75
2021/03/04 22:31:44;;;;;;;10.17;5.70;;;;;;;;;;10491099;28;20599;-76
2021/03/04 22:36:55;;;;;;;7.93;3.57;;;;;;;;;;10492440;28;20242;-75
2021/03/04 22:41:58;;;;;;;11.97;5.90;;;;;;;;;;10486504;28;20577;-74
2021/03/04 22:47:03;;;;;;;11.40;5.67;;;;;;;;;;10485558;28;20215;-76
2021/03/04 22:52:05;;;;;;;8.53;4.70;;;;;;;;;;10487433;28;20223;-74
2021/03/04 22:57:10;;;;;;;11.13;5.13;;;;;;;;;;10479365;28;20185;-77
2021/03/04 23:02:11;;;;;;;12.50;7.00;;;;;;;;;;10484516;28;20200;-77
2021/03/04 23:07:18;;;;;;;11.50;5.33;;;;;;;;;;10481016;28;20281;-75
2021/03/04 23:12:21;;;;;;;10.70;5.33;;;;;;;;;;10485979;28;20205;-74
2021/03/04 23:17:23;;;;;;;5.23;2.77;;;;;;;;;;10482753;28;20204;-74
2021/03/04 23:22:25;;;;;;;11.90;5.80;;;;;;;;;;10482069;28;20287;-75
2021/03/04 23:27:27;;;;;;;13.10;6.20;;;;;;;;;;10484179;28;20251;-75
2021/03/04 23:32:29;;;;;;;11.33;5.50;;;;;;;;;;10479281;28;20755;-76
2021/03/04 23:37:41;;;;;;;5.77;2.47;;;;;;;;;;10476676;28;20679;-75
2021/03/04 23:42:43;;;;;;;9.80;3.90;;;;;;;;;;10482280;28;20212;-76
2021/03/04 23:47:46;;;;;;;8.63;4.20;;;;;;;;;;10482155;28;20244;-72
2021/03/04 23:52:48;;;;;;;9.10;3.60;;;;;;;;;;10481105;28;20196;-73
2021/03/04 23:57:51;;;;;;;10.10;4.50;;;;;;;;;;10481863;28;20220;-76
